sensor_id;sensor_type;location;lat;lon;timestamp;P1;durP1;ratioP1;P2;durP2;ratioP2
67278;SDS011;54193;53.746;10.058;2023-04-21T00:02:38;22.92;;;9.55;;
67278;SDS011;54193;53.746;10.058;2023-04-21T00:05:23;31.53;;;14.43;;
67278;SDS011;54193;53.746;10.058;2023-04-21T00:08:09;25.00;;;10.93;;
67278;SDS011;54193;53.746;10.058;2023-04-21T00:10:55;31.90;;;12.95;;
67278;SDS011;54193;53.746;10.058;2023-04-21T00:13:41;23.92;;;9.60;;
67278;SDS011;54193;53.746;10.058;2023-04-21T00:16:26;32.15;;;13.80;;
67278;SDS011;54193;53.746;10.058;2023-04-21T00:19:12;30.08;;;12.50;;
67278;SDS011;54193;53.746;10.058;2023-04-21T00:21:58;21.80;;;7.88;;
67278;SDS011;54193;53.746;10.058;2023-04-21T00:24:45;23.57;;;9.63;;
67278;SDS011;54193;53.746;10.058;2023-04-21T00:27:31;30.02;;;12.05;;
67278;SDS011;54193;53.746;10.058;2023-04-21T00:30:16;28.88;;;11.63;;
67278;SDS011;54193;53.746;10.058;2023-04-21T00:33:02;28.33;;;11.33;;
67278;SDS011;54193;53.746;10.058;2023-04-21T00:35:48;27.63;;;12.23;;
67278;SDS011;54193;53.746;10.058;2023-04-21T00:38:34;24.33;;;10.52;;
67278;SDS011;54193;53.746;10.058;2023-04-21T00:41:19;21.70;;;10.80;;
67278;SDS011;54193;53.746;10.058;2023-04-21T00:44:06;24.65;;;11.30;;
67278;SDS011;54193;53.746;10.058;2023-04-21T00:46:53;21.35;;;9.77;;
67278;SDS011;54193;53.746;10.058;2023-04-21T00:49:38;27.73;;;11.40;;
67278;SDS011;54193;53.746;10.058;2023-04-21T00:52:24;30.77;;;11.70;;
67278;SDS011;54193;53.746;10.058;2023-04-21T00:55:11;26.35;;;11.32;;
67278;SDS011;54193;53.746;10.058;2023-04-21T00:57:57;25.83;;;12.85;;
67278;SDS011;54193;53.746;10.058;2023-04-21T01:00:42;30.60;;;11.63;;
67278;SDS011;54193;53.746;10.058;2023-04-21T01:03:28;27.88;;;11.50;;
67278;SDS011;54193;53.746;10.058;2023-04-21T01:06:15;21.13;;;7.75;;
67278;SDS011;54193;53.746;10.058;2023-04-21T01:09:02;27.52;;;12.52;;
67278;SDS011;54193;53.746;10.058;2023-04-21T01:15:03;23.52;;;9.20;;
67278;SDS011;54193;53.746;10.058;2023-04-21T01:17:49;27.42;;;10.70;;
67278;SDS011;54193;53.746;10.058;2023-04-21T01:20:34;24.80;;;11.10;;
67278;SDS011;54193;53.746;10.058;2023-04-21T01:23:20;25.15;;;11.10;;
67278;SDS011;54193;53.746;10.058;2023-04-21T01:26:06;27.42;;;11.38;;
67278;SDS011;54193;53.746;10.058;2023-04-21T01:28:52;18.10;;;8.07;;
67278;SDS011;54193;53.746;10.058;2023-04-21T01:31:41;26.15;;;11.38;;
67278;SDS011;54193;53.746;10.058;2023-04-21T01:34:26;20.98;;;8.68;;
67278;SDS011;54193;53.746;10.058;2023-04-21T01:37:13;22.15;;;9.45;;
67278;SDS011;54193;53.746;10.058;2023-04-21T01:40:02;24.80;;;10.40;;
67278;SDS011;54193;53.746;10.058;2023-04-21T01:42:51;24.63;;;9.73;;
67278;SDS011;54193;53.746;10.058;2023-04-21T01:45:37;24.23;;;10.93;;
67278;SDS011;54193;53.746;10.058;2023-04-21T01:48:22;23.00;;;10.10;;
67278;SDS011;54193;53.746;10.058;2023-04-21T01:51:08;25.30;;;10.52;;
67278;SDS011;54193;53.746;10.058;2023-04-21T01:53:53;25.27;;;10.48;;
67278;SDS011;54193;53.746;10.058;2023-04-21T01:56:39;30.40;;;11.73;;
67278;SDS011;54193;53.746;10.058;2023-04-21T01:59:25;25.20;;;10.25;;
67278;SDS011;54193;53.746;10.058;2023-04-21T02:02:10;20.90;;;9.38;;
67278;SDS011;54193;53.746;10.058;2023-04-21T02:04:56;24.30;;;10.38;;
67278;SDS011;54193;53.746;10.058;2023-04-21T02:07:42;30.15;;;10.57;;
67278;SDS011;54193;53.746;10.058;2023-04-21T02:10:28;26.23;;;12.18;;
67278;SDS011;54193;53.746;10.058;2023-04-21T02:13:13;23.02;;;9.75;;
67278;SDS011;54193;53.746;10.058;2023-04-21T02:15:59;27.97;;;10.60;;
67278;SDS011;54193;53.746;10.058;2023-04-21T02:18:45;21.55;;;9.90;;
67278;SDS011;54193;53.746;10.058;2023-04-21T02:21:32;13.27;;;4.82;;
67278;SDS011;54193;53.746;10.058;2023-04-21T02:24:18;21.60;;;9.80;;
67278;SDS011;54193;53.746;10.058;2023-04-21T02:27:03;26.45;;;10.35;;
67278;SDS011;54193;53.746;10.058;2023-04-21T02:29:49;23.90;;;10.23;;
67278;SDS011;54193;53.746;10.058;2023-04-21T02:32:35;24.10;;;11.55;;
67278;SDS011;54193;53.746;10.058;2023-04-21T02:35:20;19.75;;;8.70;;
67278;SDS011;54193;53.746;10.058;2023-04-21T02:38:06;22.23;;;9.27;;
67278;SDS011;54193;53.746;10.058;2023-04-21T02:40:53;23.90;;;9.70;;
67278;SDS011;54193;53.746;10.058;2023-04-21T02:43:38;21.77;;;9.90;;
67278;SDS011;54193;53.746;10.058;2023-04-21T02:46:24;21.77;;;10.57;;
67278;SDS011;54193;53.746;10.058;2023-04-21T02:49:10;19.20;;;8.43;;
67278;SDS011;54193;53.746;10.058;2023-04-21T02:51:56;24.90;;;10.43;;
67278;SDS011;54193;53.746;10.058;2023-04-21T02:54:42;20.33;;;7.72;;
67278;SDS011;54193;53.746;10.058;2023-04-21T02:57:28;27.35;;;10.35;;
67278;SDS011;54193;53.746;10.058;2023-04-21T03:00:14;22.45;;;10.27;;
67278;SDS011;54193;53.746;10.058;2023-04-21T03:02:59;23.00;;;11.00;;
67278;SDS011;54193;53.746;10.058;2023-04-21T03:05:45;23.58;;;9.43;;
67278;SDS011;54193;53.746;10.058;2023-04-21T03:08:31;25.40;;;11.10;;
67278;SDS011;54193;53.746;10.058;2023-04-21T03:11:17;25.27;;;10.33;;
67278;SDS011;54193;53.746;10.058;2023-04-21T03:14:08;23.08;;;9.40;;
67278;SDS011;54193;53.746;10.058;2023-04-21T03:16:54;21.67;;;8.82;;
67278;SDS011;54193;53.746;10.058;2023-04-21T03:19:40;19.33;;;8.17;;
67278;SDS011;54193;53.746;10.058;2023-04-21T03:22:26;22.33;;;9.23;;
67278;SDS011;54193;53.746;10.058;2023-04-21T03:25:12;22.08;;;9.48;;
67278;SDS011;54193;53.746;10.058;2023-04-21T03:27:57;21.75;;;9.15;;
67278;SDS011;54193;53.746;10.058;2023-04-21T03:30:43;18.02;;;6.80;;
67278;SDS011;54193;53.746;10.058;2023-04-21T03:33:28;14.80;;;5.90;;
67278;SDS011;54193;53.746;10.058;2023-04-21T03:36:14;22.35;;;9.82;;
67278;SDS011;54193;53.746;10.058;2023-04-21T03:39:00;25.17;;;9.53;;
67278;SDS011;54193;53.746;10.058;2023-04-21T03:41:46;22.48;;;10.07;;
67278;SDS011;54193;53.746;10.058;2023-04-21T03:44:32;24.92;;;10.50;;
67278;SDS011;54193;53.746;10.058;2023-04-21T03:47:17;21.93;;;9.30;;
67278;SDS011;54193;53.746;10.058;2023-04-21T03:50:03;21.05;;;9.30;;
67278;SDS011;54193;53.746;10.058;2023-04-21T03:52:50;23.95;;;9.57;;
67278;SDS011;54193;53.746;10.058;2023-04-21T03:55:35;22.02;;;9.82;;
67278;SDS011;54193;53.746;10.058;2023-04-21T03:58:21;23.85;;;10.10;;
67278;SDS011;54193;53.746;10.058;2023-04-21T04:01:07;24.75;;;8.88;;
67278;SDS011;54193;53.746;10.058;2023-04-21T04:03:52;19.00;;;8.30;;
67278;SDS011;54193;53.746;10.058;2023-04-21T04:06:38;19.50;;;8.50;;
67278;SDS011;54193;53.746;10.058;2023-04-21T04:09:23;22.15;;;10.20;;
67278;SDS011;54193;53.746;10.058;2023-04-21T04:12:09;24.35;;;9.35;;
67278;SDS011;54193;53.746;10.058;2023-04-21T04:14:55;24.43;;;9.97;;
67278;SDS011;54193;53.746;10.058;2023-04-21T04:17:40;20.38;;;9.10;;
67278;SDS011;54193;53.746;10.058;2023-04-21T04:20:26;19.40;;;9.23;;
67278;SDS011;54193;53.746;10.058;2023-04-21T04:23:12;22.42;;;9.23;;
67278;SDS011;54193;53.746;10.058;2023-04-21T04:25:57;18.75;;;8.43;;
67278;SDS011;54193;53.746;10.058;2023-04-21T04:28:44;21.00;;;8.38;;
67278;SDS011;54193;53.746;10.058;2023-04-21T04:31:29;21.63;;;9.68;;
67278;SDS011;54193;53.746;10.058;2023-04-21T04:34:15;22.93;;;9.07;;
67278;SDS011;54193;53.746;10.058;2023-04-21T04:37:01;18.00;;;7.15;;
67278;SDS011;54193;53.746;10.058;2023-04-21T04:39:51;19.73;;;9.07;;
67278;SDS011;54193;53.746;10.058;2023-04-21T04:42:37;22.40;;;9.67;;
67278;SDS011;54193;53.746;10.058;2023-04-21T04:45:25;21.70;;;8.85;;
67278;SDS011;54193;53.746;10.058;2023-04-21T04:48:13;20.00;;;9.55;;
67278;SDS011;54193;53.746;10.058;2023-04-21T04:50:58;22.88;;;9.63;;
67278;SDS011;54193;53.746;10.058;2023-04-21T04:53:44;22.23;;;9.07;;
67278;SDS011;54193;53.746;10.058;2023-04-21T04:56:30;20.75;;;8.63;;
67278;SDS011;54193;53.746;10.058;2023-04-21T04:59:15;20.27;;;8.00;;
67278;SDS011;54193;53.746;10.058;2023-04-21T05:02:01;23.47;;;8.80;;
67278;SDS011;54193;53.746;10.058;2023-04-21T05:04:47;20.63;;;9.00;;
67278;SDS011;54193;53.746;10.058;2023-04-21T05:07:33;18.70;;;7.82;;
67278;SDS011;54193;53.746;10.058;2023-04-21T05:10:19;25.27;;;9.60;;
67278;SDS011;54193;53.746;10.058;2023-04-21T05:13:05;19.23;;;8.60;;
67278;SDS011;54193;53.746;10.058;2023-04-21T05:15:57;16.70;;;7.75;;
67278;SDS011;54193;53.746;10.058;2023-04-21T05:18:43;18.70;;;8.45;;
67278;SDS011;54193;53.746;10.058;2023-04-21T05:21:29;21.48;;;9.05;;
67278;SDS011;54193;53.746;10.058;2023-04-21T05:24:15;10.40;;;4.75;;
67278;SDS011;54193;53.746;10.058;2023-04-21T05:27:01;16.40;;;7.60;;
67278;SDS011;54193;53.746;10.058;2023-04-21T05:29:49;17.10;;;7.97;;
67278;SDS011;54193;53.746;10.058;2023-04-21T05:32:35;20.23;;;8.40;;
67278;SDS011;54193;53.746;10.058;2023-04-21T05:35:21;15.00;;;7.57;;
67278;SDS011;54193;53.746;10.058;2023-04-21T05:38:06;16.10;;;6.50;;
67278;SDS011;54193;53.746;10.058;2023-04-21T05:40:53;8.85;;;5.22;;
67278;SDS011;54193;53.746;10.058;2023-04-21T05:43:39;13.73;;;6.55;;
67278;SDS011;54193;53.746;10.058;2023-04-21T05:46:25;14.60;;;6.50;;
67278;SDS011;54193;53.746;10.058;2023-04-21T05:49:11;17.40;;;8.60;;
67278;SDS011;54193;53.746;10.058;2023-04-21T05:51:56;17.73;;;8.30;;
67278;SDS011;54193;53.746;10.058;2023-04-21T05:54:42;16.77;;;7.50;;
67278;SDS011;54193;53.746;10.058;2023-04-21T05:57:28;17.27;;;7.40;;
67278;SDS011;54193;53.746;10.058;2023-04-21T06:00:13;17.88;;;7.85;;
67278;SDS011;54193;53.746;10.058;2023-04-21T06:03:00;18.52;;;8.30;;
67278;SDS011;54193;53.746;10.058;2023-04-21T06:05:46;18.93;;;9.20;;
67278;SDS011;54193;53.746;10.058;2023-04-21T06:08:32;17.33;;;7.97;;
67278;SDS011;54193;53.746;10.058;2023-04-21T06:11:17;18.75;;;8.07;;
67278;SDS011;54193;53.746;10.058;2023-04-21T06:14:03;17.00;;;8.05;;
67278;SDS011;54193;53.746;10.058;2023-04-21T06:16:49;14.75;;;6.57;;
67278;SDS011;54193;53.746;10.058;2023-04-21T06:19:37;18.00;;;7.28;;
67278;SDS011;54193;53.746;10.058;2023-04-21T06:22:26;13.82;;;7.93;;
67278;SDS011;54193;53.746;10.058;2023-04-21T06:25:11;16.20;;;4.97;;
67278;SDS011;54193;53.746;10.058;2023-04-21T06:27:57;15.05;;;7.20;;
67278;SDS011;54193;53.746;10.058;2023-04-21T06:30:43;16.33;;;8.18;;
67278;SDS011;54193;53.746;10.058;2023-04-21T06:33:30;14.93;;;6.80;;
67278;SDS011;54193;53.746;10.058;2023-04-21T06:36:15;14.27;;;5.78;;
67278;SDS011;54193;53.746;10.058;2023-04-21T06:39:01;17.25;;;7.13;;
67278;SDS011;54193;53.746;10.058;2023-04-21T06:41:49;12.18;;;5.75;;
67278;SDS011;54193;53.746;10.058;2023-04-21T06:44:34;14.52;;;6.57;;
67278;SDS011;54193;53.746;10.058;2023-04-21T06:47:20;12.35;;;5.82;;
67278;SDS011;54193;53.746;10.058;2023-04-21T06:50:06;14.65;;;5.57;;
67278;SDS011;54193;53.746;10.058;2023-04-21T06:52:53;13.50;;;5.70;;
67278;SDS011;54193;53.746;10.058;2023-04-21T06:55:38;12.00;;;5.80;;
67278;SDS011;54193;53.746;10.058;2023-04-21T06:58:24;16.77;;;8.45;;
67278;SDS011;54193;53.746;10.058;2023-04-21T07:01:10;13.30;;;7.40;;
67278;SDS011;54193;53.746;10.058;2023-04-21T07:03:56;14.07;;;8.23;;
67278;SDS011;54193;53.746;10.058;2023-04-21T07:06:42;17.80;;;7.35;;
67278;SDS011;54193;53.746;10.058;2023-04-21T07:09:28;11.52;;;5.63;;
67278;SDS011;54193;53.746;10.058;2023-04-21T07:12:15;14.18;;;6.72;;
67278;SDS011;54193;53.746;10.058;2023-04-21T07:15:00;11.23;;;5.35;;
67278;SDS011;54193;53.746;10.058;2023-04-21T07:17:46;17.03;;;8.13;;
67278;SDS011;54193;53.746;10.058;2023-04-21T07:20:31;14.88;;;5.97;;
67278;SDS011;54193;53.746;10.058;2023-04-21T07:23:17;11.75;;;5.53;;
67278;SDS011;54193;53.746;10.058;2023-04-21T07:26:03;13.27;;;5.83;;
67278;SDS011;54193;53.746;10.058;2023-04-21T07:28:48;13.82;;;7.10;;
67278;SDS011;54193;53.746;10.058;2023-04-21T07:31:36;13.63;;;7.25;;
67278;SDS011;54193;53.746;10.058;2023-04-21T07:34:22;11.75;;;6.93;;
67278;SDS011;54193;53.746;10.058;2023-04-21T07:37:07;14.95;;;7.50;;
67278;SDS011;54193;53.746;10.058;2023-04-21T07:39:53;13.27;;;6.70;;
67278;SDS011;54193;53.746;10.058;2023-04-21T07:42:39;12.25;;;6.43;;
67278;SDS011;54193;53.746;10.058;2023-04-21T07:45:24;15.90;;;6.93;;
67278;SDS011;54193;53.746;10.058;2023-04-21T07:48:10;13.43;;;7.20;;
67278;SDS011;54193;53.746;10.058;2023-04-21T07:50:56;11.95;;;6.72;;
67278;SDS011;54193;53.746;10.058;2023-04-21T07:53:44;11.43;;;4.83;;
67278;SDS011;54193;53.746;10.058;2023-04-21T07:56:30;11.70;;;6.18;;
67278;SDS011;54193;53.746;10.058;2023-04-21T07:59:16;13.68;;;7.40;;
67278;SDS011;54193;53.746;10.058;2023-04-21T08:02:02;12.25;;;5.63;;
67278;SDS011;54193;53.746;10.058;2023-04-21T08:04:48;9.68;;;5.45;;
67278;SDS011;54193;53.746;10.058;2023-04-21T08:07:34;11.98;;;5.90;;
67278;SDS011;54193;53.746;10.058;2023-04-21T08:10:20;14.60;;;7.13;;
67278;SDS011;54193;53.746;10.058;2023-04-21T08:13:06;13.37;;;6.83;;
67278;SDS011;54193;53.746;10.058;2023-04-21T08:15:52;12.52;;;6.85;;
67278;SDS011;54193;53.746;10.058;2023-04-21T08:18:38;14.95;;;7.88;;
67278;SDS011;54193;53.746;10.058;2023-04-21T08:21:24;15.47;;;8.27;;
67278;SDS011;54193;53.746;10.058;2023-04-21T08:24:10;13.77;;;6.53;;
67278;SDS011;54193;53.746;10.058;2023-04-21T08:26:55;13.38;;;6.68;;
67278;SDS011;54193;53.746;10.058;2023-04-21T08:29:41;12.38;;;7.22;;
67278;SDS011;54193;53.746;10.058;2023-04-21T08:32:27;13.30;;;7.13;;
67278;SDS011;54193;53.746;10.058;2023-04-21T08:35:13;11.50;;;5.90;;
67278;SDS011;54193;53.746;10.058;2023-04-21T08:37:58;14.20;;;7.68;;
67278;SDS011;54193;53.746;10.058;2023-04-21T08:40:44;15.07;;;7.77;;
67278;SDS011;54193;53.746;10.058;2023-04-21T08:43:30;13.77;;;7.45;;
67278;SDS011;54193;53.746;10.058;2023-04-21T08:46:15;9.85;;;5.68;;
67278;SDS011;54193;53.746;10.058;2023-04-21T08:49:02;13.13;;;7.53;;
67278;SDS011;54193;53.746;10.058;2023-04-21T08:51:48;10.13;;;6.22;;
67278;SDS011;54193;53.746;10.058;2023-04-21T08:54:33;14.90;;;7.10;;
67278;SDS011;54193;53.746;10.058;2023-04-21T08:57:23;11.15;;;6.00;;
67278;SDS011;54193;53.746;10.058;2023-04-21T09:00:08;11.57;;;5.68;;
67278;SDS011;54193;53.746;10.058;2023-04-21T09:02:56;13.45;;;8.25;;
67278;SDS011;54193;53.746;10.058;2023-04-21T09:05:42;12.38;;;7.15;;
67278;SDS011;54193;53.746;10.058;2023-04-21T09:08:28;14.63;;;9.17;;
67278;SDS011;54193;53.746;10.058;2023-04-21T09:11:14;12.15;;;6.25;;
67278;SDS011;54193;53.746;10.058;2023-04-21T09:14:00;13.70;;;6.45;;
67278;SDS011;54193;53.746;10.058;2023-04-21T09:16:47;16.30;;;8.33;;
67278;SDS011;54193;53.746;10.058;2023-04-21T09:19:45;12.45;;;6.88;;
67278;SDS011;54193;53.746;10.058;2023-04-21T09:22:30;12.05;;;6.88;;
67278;SDS011;54193;53.746;10.058;2023-04-21T09:25:18;13.00;;;7.10;;
67278;SDS011;54193;53.746;10.058;2023-04-21T09:28:08;13.95;;;8.00;;
67278;SDS011;54193;53.746;10.058;2023-04-21T09:30:54;13.60;;;8.77;;
67278;SDS011;54193;53.746;10.058;2023-04-21T09:33:45;10.32;;;6.38;;
67278;SDS011;54193;53.746;10.058;2023-04-21T09:36:31;13.83;;;6.47;;
67278;SDS011;54193;53.746;10.058;2023-04-21T09:39:17;13.57;;;7.60;;
67278;SDS011;54193;53.746;10.058;2023-04-21T09:42:09;13.48;;;7.03;;
67278;SDS011;54193;53.746;10.058;2023-04-21T09:44:55;13.03;;;7.63;;
67278;SDS011;54193;53.746;10.058;2023-04-21T09:47:41;15.50;;;8.38;;
67278;SDS011;54193;53.746;10.058;2023-04-21T09:50:27;14.88;;;8.05;;
67278;SDS011;54193;53.746;10.058;2023-04-21T09:53:15;14.85;;;9.13;;
67278;SDS011;54193;53.746;10.058;2023-04-21T09:56:03;46.47;;;25.02;;
67278;SDS011;54193;53.746;10.058;2023-04-21T09:58:57;13.98;;;6.88;;
67278;SDS011;54193;53.746;10.058;2023-04-21T10:01:47;17.25;;;10.52;;
67278;SDS011;54193;53.746;10.058;2023-04-21T10:04:35;12.00;;;5.80;;
67278;SDS011;54193;53.746;10.058;2023-04-21T10:07:21;12.70;;;7.18;;
67278;SDS011;54193;53.746;10.058;2023-04-21T10:10:08;15.55;;;8.55;;
67278;SDS011;54193;53.746;10.058;2023-04-21T10:13:01;16.20;;;7.20;;
67278;SDS011;54193;53.746;10.058;2023-04-21T10:15:47;11.32;;;5.53;;
67278;SDS011;54193;53.746;10.058;2023-04-21T10:18:36;13.45;;;7.03;;
67278;SDS011;54193;53.746;10.058;2023-04-21T10:21:26;12.68;;;6.30;;
67278;SDS011;54193;53.746;10.058;2023-04-21T10:24:13;16.38;;;7.93;;
67278;SDS011;54193;53.746;10.058;2023-04-21T10:26:58;14.23;;;8.15;;
67278;SDS011;54193;53.746;10.058;2023-04-21T10:29:44;15.65;;;7.40;;
67278;SDS011;54193;53.746;10.058;2023-04-21T10:32:38;14.23;;;9.77;;
67278;SDS011;54193;53.746;10.058;2023-04-21T10:35:36;12.18;;;7.38;;
67278;SDS011;54193;53.746;10.058;2023-04-21T10:38:53;12.27;;;6.38;;
67278;SDS011;54193;53.746;10.058;2023-04-21T10:41:42;14.20;;;7.63;;
67278;SDS011;54193;53.746;10.058;2023-04-21T10:44:28;13.75;;;6.55;;
67278;SDS011;54193;53.746;10.058;2023-04-21T10:47:14;15.35;;;8.18;;
67278;SDS011;54193;53.746;10.058;2023-04-21T10:53:10;13.48;;;8.00;;
67278;SDS011;54193;53.746;10.058;2023-04-21T10:55:57;13.65;;;8.27;;
67278;SDS011;54193;53.746;10.058;2023-04-21T10:58:43;15.73;;;10.57;;
67278;SDS011;54193;53.746;10.058;2023-04-21T11:01:29;19.27;;;8.20;;
67278;SDS011;54193;53.746;10.058;2023-04-21T11:04:16;14.77;;;7.60;;
67278;SDS011;54193;53.746;10.058;2023-04-21T11:07:06;15.65;;;9.02;;
67278;SDS011;54193;53.746;10.058;2023-04-21T11:09:59;14.67;;;7.87;;
67278;SDS011;54193;53.746;10.058;2023-04-21T11:12:48;15.57;;;7.47;;
67278;SDS011;54193;53.746;10.058;2023-04-21T11:15:34;13.15;;;7.05;;
67278;SDS011;54193;53.746;10.058;2023-04-21T11:18:19;13.07;;;7.20;;
67278;SDS011;54193;53.746;10.058;2023-04-21T11:21:26;15.37;;;7.47;;
67278;SDS011;54193;53.746;10.058;2023-04-21T11:24:15;16.60;;;8.70;;
67278;SDS011;54193;53.746;10.058;2023-04-21T11:27:02;13.15;;;6.95;;
67278;SDS011;54193;53.746;10.058;2023-04-21T11:29:56;13.60;;;7.20;;
67278;SDS011;54193;53.746;10.058;2023-04-21T11:32:42;14.07;;;7.97;;
67278;SDS011;54193;53.746;10.058;2023-04-21T11:35:28;14.43;;;7.97;;
67278;SDS011;54193;53.746;10.058;2023-04-21T11:38:16;15.73;;;7.70;;
67278;SDS011;54193;53.746;10.058;2023-04-21T11:41:03;17.37;;;10.37;;
67278;SDS011;54193;53.746;10.058;2023-04-21T11:43:49;13.82;;;8.00;;
67278;SDS011;54193;53.746;10.058;2023-04-21T11:46:36;17.20;;;8.95;;
67278;SDS011;54193;53.746;10.058;2023-04-21T11:49:23;15.95;;;8.13;;
67278;SDS011;54193;53.746;10.058;2023-04-21T11:52:10;15.13;;;9.20;;
67278;SDS011;54193;53.746;10.058;2023-04-21T11:55:04;16.48;;;10.10;;
67278;SDS011;54193;53.746;10.058;2023-04-21T11:57:51;13.23;;;7.88;;
67278;SDS011;54193;53.746;10.058;2023-04-21T12:00:36;14.53;;;8.80;;
67278;SDS011;54193;53.746;10.058;2023-04-21T12:03:22;12.48;;;6.93;;
67278;SDS011;54193;53.746;10.058;2023-04-21T12:06:10;11.82;;;7.00;;
67278;SDS011;54193;53.746;10.058;2023-04-21T12:09:05;14.17;;;8.27;;
67278;SDS011;54193;53.746;10.058;2023-04-21T12:11:51;16.70;;;9.02;;
67278;SDS011;54193;53.746;10.058;2023-04-21T12:14:38;14.77;;;9.38;;
67278;SDS011;54193;53.746;10.058;2023-04-21T12:17:24;13.32;;;7.57;;
67278;SDS011;54193;53.746;10.058;2023-04-21T12:20:10;14.25;;;6.35;;
67278;SDS011;54193;53.746;10.058;2023-04-21T12:22:57;16.63;;;9.20;;
67278;SDS011;54193;53.746;10.058;2023-04-21T12:25:47;13.73;;;8.00;;
67278;SDS011;54193;53.746;10.058;2023-04-21T12:28:33;13.70;;;8.10;;
67278;SDS011;54193;53.746;10.058;2023-04-21T12:31:18;13.93;;;7.75;;
67278;SDS011;54193;53.746;10.058;2023-04-21T12:34:04;15.00;;;8.82;;
67278;SDS011;54193;53.746;10.058;2023-04-21T12:36:49;13.75;;;7.93;;
67278;SDS011;54193;53.746;10.058;2023-04-21T12:39:35;16.13;;;8.27;;
67278;SDS011;54193;53.746;10.058;2023-04-21T12:42:21;13.18;;;7.60;;
67278;SDS011;54193;53.746;10.058;2023-04-21T12:45:07;13.77;;;6.45;;
67278;SDS011;54193;53.746;10.058;2023-04-21T12:47:53;19.93;;;9.00;;
67278;SDS011;54193;53.746;10.058;2023-04-21T12:50:39;13.02;;;7.45;;
67278;SDS011;54193;53.746;10.058;2023-04-21T12:53:25;13.75;;;8.38;;
67278;SDS011;54193;53.746;10.058;2023-04-21T12:56:11;13.65;;;7.18;;
67278;SDS011;54193;53.746;10.058;2023-04-21T12:58:56;13.70;;;7.68;;
67278;SDS011;54193;53.746;10.058;2023-04-21T13:01:42;14.20;;;8.13;;
67278;SDS011;54193;53.746;10.058;2023-04-21T13:04:28;13.00;;;7.45;;
67278;SDS011;54193;53.746;10.058;2023-04-21T13:07:14;16.33;;;8.50;;
67278;SDS011;54193;53.746;10.058;2023-04-21T13:10:00;14.98;;;7.85;;
67278;SDS011;54193;53.746;10.058;2023-04-21T13:12:47;14.32;;;7.53;;
67278;SDS011;54193;53.746;10.058;2023-04-21T13:15:32;12.77;;;6.57;;
67278;SDS011;54193;53.746;10.058;2023-04-21T13:18:20;12.23;;;6.90;;
67278;SDS011;54193;53.746;10.058;2023-04-21T13:21:05;15.70;;;6.53;;
67278;SDS011;54193;53.746;10.058;2023-04-21T13:23:51;13.05;;;7.53;;
67278;SDS011;54193;53.746;10.058;2023-04-21T13:26:37;15.23;;;7.28;;
67278;SDS011;54193;53.746;10.058;2023-04-21T13:29:23;14.18;;;7.15;;
67278;SDS011;54193;53.746;10.058;2023-04-21T13:32:08;14.95;;;7.32;;
67278;SDS011;54193;53.746;10.058;2023-04-21T13:34:54;16.03;;;9.23;;
67278;SDS011;54193;53.746;10.058;2023-04-21T13:37:40;13.82;;;7.28;;
67278;SDS011;54193;53.746;10.058;2023-04-21T13:40:25;12.93;;;7.72;;
67278;SDS011;54193;53.746;10.058;2023-04-21T13:43:11;12.73;;;6.10;;
67278;SDS011;54193;53.746;10.058;2023-04-21T13:45:57;12.63;;;6.25;;
67278;SDS011;54193;53.746;10.058;2023-04-21T13:48:43;16.25;;;8.88;;
67278;SDS011;54193;53.746;10.058;2023-04-21T13:51:29;13.70;;;7.13;;
67278;SDS011;54193;53.746;10.058;2023-04-21T13:54:16;14.20;;;7.43;;
67278;SDS011;54193;53.746;10.058;2023-04-21T13:57:02;14.15;;;7.85;;
67278;SDS011;54193;53.746;10.058;2023-04-21T13:59:48;11.18;;;6.70;;
67278;SDS011;54193;53.746;10.058;2023-04-21T14:02:34;15.03;;;7.97;;
67278;SDS011;54193;53.746;10.058;2023-04-21T14:05:19;13.52;;;8.55;;
67278;SDS011;54193;53.746;10.058;2023-04-21T14:08:05;13.63;;;8.57;;
67278;SDS011;54193;53.746;10.058;2023-04-21T14:10:51;14.07;;;6.70;;
67278;SDS011;54193;53.746;10.058;2023-04-21T14:13:37;17.65;;;8.82;;
67278;SDS011;54193;53.746;10.058;2023-04-21T14:16:22;13.77;;;8.52;;
67278;SDS011;54193;53.746;10.058;2023-04-21T14:19:08;13.90;;;8.68;;
67278;SDS011;54193;53.746;10.058;2023-04-21T14:21:54;12.45;;;7.60;;
67278;SDS011;54193;53.746;10.058;2023-04-21T14:24:40;13.60;;;7.35;;
67278;SDS011;54193;53.746;10.058;2023-04-21T14:27:26;12.80;;;7.40;;
67278;SDS011;54193;53.746;10.058;2023-04-21T14:30:12;17.03;;;7.93;;
67278;SDS011;54193;53.746;10.058;2023-04-21T14:32:58;13.63;;;7.03;;
67278;SDS011;54193;53.746;10.058;2023-04-21T14:35:44;14.75;;;7.60;;
67278;SDS011;54193;53.746;10.058;2023-04-21T14:38:30;11.27;;;6.17;;
67278;SDS011;54193;53.746;10.058;2023-04-21T14:41:17;15.93;;;7.75;;
67278;SDS011;54193;53.746;10.058;2023-04-21T14:44:03;11.60;;;5.72;;
67278;SDS011;54193;53.746;10.058;2023-04-21T14:46:49;15.45;;;8.05;;
67278;SDS011;54193;53.746;10.058;2023-04-21T14:49:34;14.82;;;9.90;;
67278;SDS011;54193;53.746;10.058;2023-04-21T14:52:21;14.65;;;10.18;;
67278;SDS011;54193;53.746;10.058;2023-04-21T14:55:09;13.88;;;7.63;;
67278;SDS011;54193;53.746;10.058;2023-04-21T14:57:55;13.13;;;7.47;;
67278;SDS011;54193;53.746;10.058;2023-04-21T15:00:41;17.35;;;8.90;;
67278;SDS011;54193;53.746;10.058;2023-04-21T15:03:27;13.98;;;8.25;;
67278;SDS011;54193;53.746;10.058;2023-04-21T15:06:13;13.80;;;6.43;;
67278;SDS011;54193;53.746;10.058;2023-04-21T15:09:00;17.92;;;8.63;;
67278;SDS011;54193;53.746;10.058;2023-04-21T15:11:46;22.55;;;11.00;;
67278;SDS011;54193;53.746;10.058;2023-04-21T15:14:32;19.02;;;10.45;;
67278;SDS011;54193;53.746;10.058;2023-04-21T15:17:21;20.88;;;11.60;;
67278;SDS011;54193;53.746;10.058;2023-04-21T15:20:07;20.33;;;11.55;;
67278;SDS011;54193;53.746;10.058;2023-04-21T15:22:54;14.90;;;8.10;;
67278;SDS011;54193;53.746;10.058;2023-04-21T15:25:40;15.53;;;8.93;;
67278;SDS011;54193;53.746;10.058;2023-04-21T15:28:26;14.43;;;8.52;;
67278;SDS011;54193;53.746;10.058;2023-04-21T15:31:11;14.52;;;6.80;;
67278;SDS011;54193;53.746;10.058;2023-04-21T15:33:57;15.57;;;7.17;;
67278;SDS011;54193;53.746;10.058;2023-04-21T15:36:42;11.07;;;5.45;;
67278;SDS011;54193;53.746;10.058;2023-04-21T15:39:28;17.27;;;8.38;;
67278;SDS011;54193;53.746;10.058;2023-04-21T15:42:14;11.43;;;6.35;;
67278;SDS011;54193;53.746;10.058;2023-04-21T15:45:00;15.85;;;7.57;;
67278;SDS011;54193;53.746;10.058;2023-04-21T15:47:48;13.90;;;7.70;;
67278;SDS011;54193;53.746;10.058;2023-04-21T15:50:37;13.15;;;6.78;;
67278;SDS011;54193;53.746;10.058;2023-04-21T15:53:26;15.88;;;8.80;;
67278;SDS011;54193;53.746;10.058;2023-04-21T15:56:13;14.45;;;7.82;;
67278;SDS011;54193;53.746;10.058;2023-04-21T15:58:59;11.55;;;6.75;;
67278;SDS011;54193;53.746;10.058;2023-04-21T16:01:45;12.05;;;6.05;;
67278;SDS011;54193;53.746;10.058;2023-04-21T16:04:30;13.30;;;6.55;;
67278;SDS011;54193;53.746;10.058;2023-04-21T16:07:16;13.27;;;6.33;;
67278;SDS011;54193;53.746;10.058;2023-04-21T16:10:01;14.43;;;7.35;;
67278;SDS011;54193;53.746;10.058;2023-04-21T16:12:48;11.93;;;6.22;;
67278;SDS011;54193;53.746;10.058;2023-04-21T16:15:35;13.23;;;7.40;;
67278;SDS011;54193;53.746;10.058;2023-04-21T16:18:20;13.43;;;7.30;;